sensor_id;sensor_type;location;lat;lon;timestamp;temperature;humidity
65044;DHT22;51617;48.158;16.464;2023-03-14T00:01:53;11.70;80.50
65044;DHT22;51617;48.158;16.464;2023-03-14T00:04:19;11.60;80.60
65044;DHT22;51617;48.158;16.464;2023-03-14T00:06:45;11.60;80.90
65044;DHT22;51617;48.158;16.464;2023-03-14T00:09:13;11.60;81.20
65044;DHT22;51617;48.158;16.464;2023-03-14T00:11:38;11.60;81.30
65044;DHT22;51617;48.158;16.464;2023-03-14T00:14:04;11.60;81.40
65044;DHT22;51617;48.158;16.464;2023-03-14T00:16:30;11.60;81.50
65044;DHT22;51617;48.158;16.464;2023-03-14T00:18:55;11.50;81.70
65044;DHT22;51617;48.158;16.464;2023-03-14T00:21:23;11.50;81.70
65044;DHT22;51617;48.158;16.464;2023-03-14T00:23:48;11.50;81.80
65044;DHT22;51617;48.158;16.464;2023-03-14T00:26:17;11.50;82.10
65044;DHT22;51617;48.158;16.464;2023-03-14T00:28:43;11.40;82.20
65044;DHT22;51617;48.158;16.464;2023-03-14T00:31:11;11.50;82.20
65044;DHT22;51617;48.158;16.464;2023-03-14T00:33:37;11.40;82.30
65044;DHT22;51617;48.158;16.464;2023-03-14T00:36:15;11.40;82.40
65044;DHT22;51617;48.158;16.464;2023-03-14T00:38:42;11.40;82.40
65044;DHT22;51617;48.158;16.464;2023-03-14T00:41:13;11.40;82.50
65044;DHT22;51617;48.158;16.464;2023-03-14T00:43:39;11.40;82.70
65044;DHT22;51617;48.158;16.464;2023-03-14T00:46:05;11.40;82.60
65044;DHT22;51617;48.158;16.464;2023-03-14T00:48:30;11.40;83.30
65044;DHT22;51617;48.158;16.464;2023-03-14T00:50:56;11.30;82.90
65044;DHT22;51617;48.158;16.464;2023-03-14T00:53:22;11.40;83.00
65044;DHT22;51617;48.158;16.464;2023-03-14T00:55:48;11.40;82.90
65044;DHT22;51617;48.158;16.464;2023-03-14T00:58:15;11.40;82.90
65044;DHT22;51617;48.158;16.464;2023-03-14T01:00:43;11.40;83.00
65044;DHT22;51617;48.158;16.464;2023-03-14T01:03:10;11.40;83.00
65044;DHT22;51617;48.158;16.464;2023-03-14T01:05:36;11.40;82.90
65044;DHT22;51617;48.158;16.464;2023-03-14T01:08:03;11.40;83.00
65044;DHT22;51617;48.158;16.464;2023-03-14T01:10:29;11.40;83.00
65044;DHT22;51617;48.158;16.464;2023-03-14T01:12:54;11.40;82.90
65044;DHT22;51617;48.158;16.464;2023-03-14T01:15:20;11.40;82.90
65044;DHT22;51617;48.158;16.464;2023-03-14T01:17:47;11.40;82.80
65044;DHT22;51617;48.158;16.464;2023-03-14T01:20:13;11.40;82.70
65044;DHT22;51617;48.158;16.464;2023-03-14T01:22:41;11.50;82.70
65044;DHT22;51617;48.158;16.464;2023-03-14T01:25:10;11.50;82.50
65044;DHT22;51617;48.158;16.464;2023-03-14T01:27:36;11.50;82.50
65044;DHT22;51617;48.158;16.464;2023-03-14T01:30:02;11.50;82.30
65044;DHT22;51617;48.158;16.464;2023-03-14T01:32:28;11.50;82.10
65044;DHT22;51617;48.158;16.464;2023-03-14T01:34:53;11.50;82.30
65044;DHT22;51617;48.158;16.464;2023-03-14T01:37:19;11.50;82.30
65044;DHT22;51617;48.158;16.464;2023-03-14T01:39:46;11.50;82.20
65044;DHT22;51617;48.158;16.464;2023-03-14T01:42:12;11.40;82.30
65044;DHT22;51617;48.158;16.464;2023-03-14T01:44:58;11.50;82.20
65044;DHT22;51617;48.158;16.464;2023-03-14T01:47:24;11.40;82.30
65044;DHT22;51617;48.158;16.464;2023-03-14T01:49:54;11.30;82.50
65044;DHT22;51617;48.158;16.464;2023-03-14T01:52:44;11.30;82.60
65044;DHT22;51617;48.158;16.464;2023-03-14T01:55:16;11.40;82.50
65044;DHT22;51617;48.158;16.464;2023-03-14T01:57:48;11.40;82.30
65044;DHT22;51617;48.158;16.464;2023-03-14T02:00:18;11.40;82.30
65044;DHT22;51617;48.158;16.464;2023-03-14T02:02:47;11.50;82.20
65044;DHT22;51617;48.158;16.464;2023-03-14T02:05:17;11.40;82.10
65044;DHT22;51617;48.158;16.464;2023-03-14T02:07:51;11.40;82.00
65044;DHT22;51617;48.158;16.464;2023-03-14T02:10:18;11.30;82.20
65044;DHT22;51617;48.158;16.464;2023-03-14T02:12:47;11.30;82.60
65044;DHT22;51617;48.158;16.464;2023-03-14T02:15:13;11.20;82.90
65044;DHT22;51617;48.158;16.464;2023-03-14T02:17:40;11.20;82.80
65044;DHT22;51617;48.158;16.464;2023-03-14T02:20:51;11.20;82.80
65044;DHT22;51617;48.158;16.464;2023-03-14T02:26:25;11.20;83.10
65044;DHT22;51617;48.158;16.464;2023-03-14T02:28:53;11.10;83.10
65044;DHT22;51617;48.158;16.464;2023-03-14T02:31:19;11.00;83.10
65044;DHT22;51617;48.158;16.464;2023-03-14T02:33:46;11.00;83.50
65044;DHT22;51617;48.158;16.464;2023-03-14T02:36:14;10.90;83.70
65044;DHT22;51617;48.158;16.464;2023-03-14T02:41:29;10.80;84.20
65044;DHT22;51617;48.158;16.464;2023-03-14T02:43:55;10.70;84.40
65044;DHT22;51617;48.158;16.464;2023-03-14T02:46:21;10.70;84.50
65044;DHT22;51617;48.158;16.464;2023-03-14T02:51:13;10.60;84.90
65044;DHT22;51617;48.158;16.464;2023-03-14T02:53:40;10.60;85.30
65044;DHT22;51617;48.158;16.464;2023-03-14T02:56:07;10.50;85.50
65044;DHT22;51617;48.158;16.464;2023-03-14T02:58:33;10.50;85.80
65044;DHT22;51617;48.158;16.464;2023-03-14T03:00:59;10.40;86.20
65044;DHT22;51617;48.158;16.464;2023-03-14T03:03:24;10.40;86.30
65044;DHT22;51617;48.158;16.464;2023-03-14T03:05:52;10.40;86.50
65044;DHT22;51617;48.158;16.464;2023-03-14T03:08:19;10.40;86.60
65044;DHT22;51617;48.158;16.464;2023-03-14T03:10:46;10.40;86.70
65044;DHT22;51617;48.158;16.464;2023-03-14T03:13:11;10.40;86.60
65044;DHT22;51617;48.158;16.464;2023-03-14T03:15:38;10.50;86.60
65044;DHT22;51617;48.158;16.464;2023-03-14T03:18:03;10.60;86.50
65044;DHT22;51617;48.158;16.464;2023-03-14T03:20:29;10.60;86.20
65044;DHT22;51617;48.158;16.464;2023-03-14T03:22:55;10.60;86.40
65044;DHT22;51617;48.158;16.464;2023-03-14T03:25:21;10.60;86.40
65044;DHT22;51617;48.158;16.464;2023-03-14T03:27:46;10.50;86.30
65044;DHT22;51617;48.158;16.464;2023-03-14T03:30:12;10.50;86.70
65044;DHT22;51617;48.158;16.464;2023-03-14T03:32:38;10.50;87.10
65044;DHT22;51617;48.158;16.464;2023-03-14T03:35:04;10.50;87.40
65044;DHT22;51617;48.158;16.464;2023-03-14T03:37:31;10.50;87.30
65044;DHT22;51617;48.158;16.464;2023-03-14T03:39:57;10.40;87.30
65044;DHT22;51617;48.158;16.464;2023-03-14T03:42:23;10.40;87.20
65044;DHT22;51617;48.158;16.464;2023-03-14T03:44:49;10.40;87.30
65044;DHT22;51617;48.158;16.464;2023-03-14T03:47:15;10.40;87.50
65044;DHT22;51617;48.158;16.464;2023-03-14T03:49:41;10.30;87.60
65044;DHT22;51617;48.158;16.464;2023-03-14T03:52:06;10.30;87.60
65044;DHT22;51617;48.158;16.464;2023-03-14T03:54:32;10.30;87.60
65044;DHT22;51617;48.158;16.464;2023-03-14T03:56:58;10.30;87.40
65044;DHT22;51617;48.158;16.464;2023-03-14T03:59:23;10.30;87.20
65044;DHT22;51617;48.158;16.464;2023-03-14T04:01:49;10.40;87.00
65044;DHT22;51617;48.158;16.464;2023-03-14T04:04:15;10.40;86.80
65044;DHT22;51617;48.158;16.464;2023-03-14T04:06:40;10.50;86.60
65044;DHT22;51617;48.158;16.464;2023-03-14T04:09:08;10.40;86.40
65044;DHT22;51617;48.158;16.464;2023-03-14T04:11:34;10.40;86.30
65044;DHT22;51617;48.158;16.464;2023-03-14T04:14:00;10.50;86.20
65044;DHT22;51617;48.158;16.464;2023-03-14T04:16:26;10.60;86.00
65044;DHT22;51617;48.158;16.464;2023-03-14T04:18:52;10.60;85.80
65044;DHT22;51617;48.158;16.464;2023-03-14T04:21:18;10.70;85.50
65044;DHT22;51617;48.158;16.464;2023-03-14T04:23:44;10.70;85.30
65044;DHT22;51617;48.158;16.464;2023-03-14T04:26:10;10.70;85.20
65044;DHT22;51617;48.158;16.464;2023-03-14T04:28:36;10.80;85.00
65044;DHT22;51617;48.158;16.464;2023-03-14T04:31:11;10.70;84.90
65044;DHT22;51617;48.158;16.464;2023-03-14T04:33:37;10.70;85.10
65044;DHT22;51617;48.158;16.464;2023-03-14T04:36:04;10.60;85.00
65044;DHT22;51617;48.158;16.464;2023-03-14T04:38:30;10.50;85.30
65044;DHT22;51617;48.158;16.464;2023-03-14T04:40:56;10.40;85.70
65044;DHT22;51617;48.158;16.464;2023-03-14T04:43:22;10.20;86.10
65044;DHT22;51617;48.158;16.464;2023-03-14T04:45:47;10.10;86.30
65044;DHT22;51617;48.158;16.464;2023-03-14T04:48:13;9.90;86.70
65044;DHT22;51617;48.158;16.464;2023-03-14T04:50:39;9.80;87.20
65044;DHT22;51617;48.158;16.464;2023-03-14T04:53:05;9.80;87.70
65044;DHT22;51617;48.158;16.464;2023-03-14T04:55:32;9.80;87.80
65044;DHT22;51617;48.158;16.464;2023-03-14T04:57:58;10.00;87.30
65044;DHT22;51617;48.158;16.464;2023-03-14T05:00:24;10.10;86.60
65044;DHT22;51617;48.158;16.464;2023-03-14T05:02:50;10.30;86.00
65044;DHT22;51617;48.158;16.464;2023-03-14T05:05:16;10.40;85.70
65044;DHT22;51617;48.158;16.464;2023-03-14T05:07:42;10.40;85.60
65044;DHT22;51617;48.158;16.464;2023-03-14T05:10:08;10.50;85.60
65044;DHT22;51617;48.158;16.464;2023-03-14T05:12:34;10.50;85.20
65044;DHT22;51617;48.158;16.464;2023-03-14T05:15:00;10.40;85.30
65044;DHT22;51617;48.158;16.464;2023-03-14T05:17:25;10.40;85.30
65044;DHT22;51617;48.158;16.464;2023-03-14T05:19:51;10.40;85.20
65044;DHT22;51617;48.158;16.464;2023-03-14T05:22:17;10.50;85.20
65044;DHT22;51617;48.158;16.464;2023-03-14T05:24:43;10.50;85.00
65044;DHT22;51617;48.158;16.464;2023-03-14T05:27:09;10.40;84.80
65044;DHT22;51617;48.158;16.464;2023-03-14T05:29:36;10.20;85.30
65044;DHT22;51617;48.158;16.464;2023-03-14T05:32:02;10.10;85.80
65044;DHT22;51617;48.158;16.464;2023-03-14T05:34:27;10.20;85.90
65044;DHT22;51617;48.158;16.464;2023-03-14T05:36:53;10.20;86.00
65044;DHT22;51617;48.158;16.464;2023-03-14T05:39:19;10.30;86.30
65044;DHT22;51617;48.158;16.464;2023-03-14T05:41:44;10.30;85.40
65044;DHT22;51617;48.158;16.464;2023-03-14T05:44:10;10.40;85.40
65044;DHT22;51617;48.158;16.464;2023-03-14T05:46:35;10.40;85.30
65044;DHT22;51617;48.158;16.464;2023-03-14T05:49:01;10.50;85.20
65044;DHT22;51617;48.158;16.464;2023-03-14T05:51:27;10.60;84.40
65044;DHT22;51617;48.158;16.464;2023-03-14T05:53:52;10.50;84.20
65044;DHT22;51617;48.158;16.464;2023-03-14T05:56:18;10.60;84.10
65044;DHT22;51617;48.158;16.464;2023-03-14T05:58:44;10.60;83.80
65044;DHT22;51617;48.158;16.464;2023-03-14T06:01:09;10.60;83.60
65044;DHT22;51617;48.158;16.464;2023-03-14T06:03:35;10.70;83.60
65044;DHT22;51617;48.158;16.464;2023-03-14T06:06:01;10.80;83.50
65044;DHT22;51617;48.158;16.464;2023-03-14T06:08:27;10.80;83.40
65044;DHT22;51617;48.158;16.464;2023-03-14T06:10:53;10.80;83.30
65044;DHT22;51617;48.158;16.464;2023-03-14T06:13:19;10.70;83.30
65044;DHT22;51617;48.158;16.464;2023-03-14T06:15:45;10.70;83.60
65044;DHT22;51617;48.158;16.464;2023-03-14T06:18:10;10.60;84.10
65044;DHT22;51617;48.158;16.464;2023-03-14T06:20:37;10.60;84.30
65044;DHT22;51617;48.158;16.464;2023-03-14T06:23:05;10.60;84.50
65044;DHT22;51617;48.158;16.464;2023-03-14T06:25:32;10.50;84.50
65044;DHT22;51617;48.158;16.464;2023-03-14T06:27:58;10.50;84.60
65044;DHT22;51617;48.158;16.464;2023-03-14T06:30:23;10.60;84.80
65044;DHT22;51617;48.158;16.464;2023-03-14T06:32:49;10.60;84.70
65044;DHT22;51617;48.158;16.464;2023-03-14T06:35:15;10.70;84.60
65044;DHT22;51617;48.158;16.464;2023-03-14T06:37:41;10.80;84.40
65044;DHT22;51617;48.158;16.464;2023-03-14T06:40:08;10.80;84.40
65044;DHT22;51617;48.158;16.464;2023-03-14T06:42:34;10.90;84.10
65044;DHT22;51617;48.158;16.464;2023-03-14T06:45:00;11.00;83.70
65044;DHT22;51617;48.158;16.464;2023-03-14T06:47:26;11.10;83.50
65044;DHT22;51617;48.158;16.464;2023-03-14T06:49:51;11.20;83.40
65044;DHT22;51617;48.158;16.464;2023-03-14T06:52:17;11.40;83.00
65044;DHT22;51617;48.158;16.464;2023-03-14T06:54:43;11.40;82.60
65044;DHT22;51617;48.158;16.464;2023-03-14T06:57:08;11.60;82.10
65044;DHT22;51617;48.158;16.464;2023-03-14T06:59:34;11.60;81.70
65044;DHT22;51617;48.158;16.464;2023-03-14T07:02:00;11.70;81.20
65044;DHT22;51617;48.158;16.464;2023-03-14T07:04:25;11.80;81.10
65044;DHT22;51617;48.158;16.464;2023-03-14T07:06:51;11.80;81.20
65044;DHT22;51617;48.158;16.464;2023-03-14T07:09:17;11.80;81.30
65044;DHT22;51617;48.158;16.464;2023-03-14T07:11:43;11.90;81.50
65044;DHT22;51617;48.158;16.464;2023-03-14T07:14:09;12.00;81.90
65044;DHT22;51617;48.158;16.464;2023-03-14T07:16:34;12.00;81.00
65044;DHT22;51617;48.158;16.464;2023-03-14T07:19:01;12.10;80.70
65044;DHT22;51617;48.158;16.464;2023-03-14T07:21:27;12.20;80.70
65044;DHT22;51617;48.158;16.464;2023-03-14T07:23:53;12.20;80.80
65044;DHT22;51617;48.158;16.464;2023-03-14T07:26:19;12.20;80.80
65044;DHT22;51617;48.158;16.464;2023-03-14T07:28:44;12.20;81.00
65044;DHT22;51617;48.158;16.464;2023-03-14T07:31:10;12.20;81.00
65044;DHT22;51617;48.158;16.464;2023-03-14T07:33:36;12.10;81.40
65044;DHT22;51617;48.158;16.464;2023-03-14T07:36:02;12.10;81.80
65044;DHT22;51617;48.158;16.464;2023-03-14T07:38:28;12.10;81.80
65044;DHT22;51617;48.158;16.464;2023-03-14T07:41:02;12.00;82.00
65044;DHT22;51617;48.158;16.464;2023-03-14T07:43:28;12.10;82.30
65044;DHT22;51617;48.158;16.464;2023-03-14T07:45:53;12.10;82.50
65044;DHT22;51617;48.158;16.464;2023-03-14T07:48:19;12.10;82.40
65044;DHT22;51617;48.158;16.464;2023-03-14T07:50:48;12.20;82.40
65044;DHT22;51617;48.158;16.464;2023-03-14T07:53:15;12.30;82.20
65044;DHT22;51617;48.158;16.464;2023-03-14T07:55:40;12.40;82.50
65044;DHT22;51617;48.158;16.464;2023-03-14T07:58:06;12.50;82.00
65044;DHT22;51617;48.158;16.464;2023-03-14T08:00:32;12.60;81.60
65044;DHT22;51617;48.158;16.464;2023-03-14T08:02:58;12.80;81.50
65044;DHT22;51617;48.158;16.464;2023-03-14T08:05:24;12.80;80.90
65044;DHT22;51617;48.158;16.464;2023-03-14T08:07:49;12.90;81.20
65044;DHT22;51617;48.158;16.464;2023-03-14T08:10:15;13.00;81.20
65044;DHT22;51617;48.158;16.464;2023-03-14T08:12:52;13.10;80.90
65044;DHT22;51617;48.158;16.464;2023-03-14T08:15:19;13.20;80.60
65044;DHT22;51617;48.158;16.464;2023-03-14T08:17:44;13.20;80.20
65044;DHT22;51617;48.158;16.464;2023-03-14T08:20:11;13.30;79.70
65044;DHT22;51617;48.158;16.464;2023-03-14T08:22:38;13.40;79.60
65044;DHT22;51617;48.158;16.464;2023-03-14T08:25:05;13.40;79.80
65044;DHT22;51617;48.158;16.464;2023-03-14T08:27:31;13.40;79.50
65044;DHT22;51617;48.158;16.464;2023-03-14T08:29:57;13.50;79.20
65044;DHT22;51617;48.158;16.464;2023-03-14T08:32:22;13.50;79.30
65044;DHT22;51617;48.158;16.464;2023-03-14T08:34:49;13.60;79.40
65044;DHT22;51617;48.158;16.464;2023-03-14T08:37:15;13.60;79.20
65044;DHT22;51617;48.158;16.464;2023-03-14T08:39:40;13.70;79.10
65044;DHT22;51617;48.158;16.464;2023-03-14T08:42:06;13.70;79.10
65044;DHT22;51617;48.158;16.464;2023-03-14T08:44:36;13.70;79.00
65044;DHT22;51617;48.158;16.464;2023-03-14T08:47:01;13.70;78.90
65044;DHT22;51617;48.158;16.464;2023-03-14T08:49:27;13.80;78.90
65044;DHT22;51617;48.158;16.464;2023-03-14T08:51:52;13.70;78.60
65044;DHT22;51617;48.158;16.464;2023-03-14T08:54:18;13.70;78.90
65044;DHT22;51617;48.158;16.464;2023-03-14T08:56:44;13.70;78.50
65044;DHT22;51617;48.158;16.464;2023-03-14T08:59:10;13.70;78.60
65044;DHT22;51617;48.158;16.464;2023-03-14T09:01:36;13.70;79.00
65044;DHT22;51617;48.158;16.464;2023-03-14T09:04:02;13.70;79.20
65044;DHT22;51617;48.158;16.464;2023-03-14T09:06:27;13.80;79.20
65044;DHT22;51617;48.158;16.464;2023-03-14T09:08:53;13.80;79.20
65044;DHT22;51617;48.158;16.464;2023-03-14T09:11:19;13.80;79.40
65044;DHT22;51617;48.158;16.464;2023-03-14T09:13:44;13.80;79.30
65044;DHT22;51617;48.158;16.464;2023-03-14T09:16:10;13.80;79.40
65044;DHT22;51617;48.158;16.464;2023-03-14T09:18:36;13.90;79.60
65044;DHT22;51617;48.158;16.464;2023-03-14T09:21:02;13.80;79.60
65044;DHT22;51617;48.158;16.464;2023-03-14T09:23:27;13.90;79.70
65044;DHT22;51617;48.158;16.464;2023-03-14T09:25:57;13.90;79.70
65044;DHT22;51617;48.158;16.464;2023-03-14T09:28:23;13.90;79.70
65044;DHT22;51617;48.158;16.464;2023-03-14T09:30:49;13.90;80.10
65044;DHT22;51617;48.158;16.464;2023-03-14T09:33:16;13.90;80.20
65044;DHT22;51617;48.158;16.464;2023-03-14T09:35:42;14.00;80.30
65044;DHT22;51617;48.158;16.464;2023-03-14T09:38:07;14.00;80.40
65044;DHT22;51617;48.158;16.464;2023-03-14T09:40:35;14.00;81.00
65044;DHT22;51617;48.158;16.464;2023-03-14T09:43:02;14.00;81.00
65044;DHT22;51617;48.158;16.464;2023-03-14T09:47:56;14.10;81.00
65044;DHT22;51617;48.158;16.464;2023-03-14T09:50:23;14.20;80.10
65044;DHT22;51617;48.158;16.464;2023-03-14T09:53:00;14.20;79.80
65044;DHT22;51617;48.158;16.464;2023-03-14T09:55:27;14.30;79.70
65044;DHT22;51617;48.158;16.464;2023-03-14T09:58:03;14.40;79.40
65044;DHT22;51617;48.158;16.464;2023-03-14T10:00:31;14.40;79.20
65044;DHT22;51617;48.158;16.464;2023-03-14T10:05:39;14.50;78.90
65044;DHT22;51617;48.158;16.464;2023-03-14T10:08:05;14.50;78.80
65044;DHT22;51617;48.158;16.464;2023-03-14T10:10:32;14.40;79.80
65044;DHT22;51617;48.158;16.464;2023-03-14T10:13:19;14.30;79.90
65044;DHT22;51617;48.158;16.464;2023-03-14T10:16:00;14.40;79.70
65044;DHT22;51617;48.158;16.464;2023-03-14T10:18:29;14.30;79.70
65044;DHT22;51617;48.158;16.464;2023-03-14T10:21:20;14.30;79.60
65044;DHT22;51617;48.158;16.464;2023-03-14T10:23:47;14.40;79.30
65044;DHT22;51617;48.158;16.464;2023-03-14T10:26:17;14.40;79.20
65044;DHT22;51617;48.158;16.464;2023-03-14T10:28:50;14.50;78.90
65044;DHT22;51617;48.158;16.464;2023-03-14T10:31:16;14.60;78.50
65044;DHT22;51617;48.158;16.464;2023-03-14T10:34:00;14.70;78.40
65044;DHT22;51617;48.158;16.464;2023-03-14T10:36:33;14.90;78.20
65044;DHT22;51617;48.158;16.464;2023-03-14T10:41:50;14.90;78.60
65044;DHT22;51617;48.158;16.464;2023-03-14T10:44:23;14.90;78.60
65044;DHT22;51617;48.158;16.464;2023-03-14T10:47:02;15.00;78.40
65044;DHT22;51617;48.158;16.464;2023-03-14T10:49:34;15.00;78.20
65044;DHT22;51617;48.158;16.464;2023-03-14T10:52:02;15.10;78.10
65044;DHT22;51617;48.158;16.464;2023-03-14T10:54:37;15.10;78.00
65044;DHT22;51617;48.158;16.464;2023-03-14T10:57:04;15.20;78.00
65044;DHT22;51617;48.158;16.464;2023-03-14T10:59:36;15.20;77.50
65044;DHT22;51617;48.158;16.464;2023-03-14T11:02:24;15.20;77.60
65044;DHT22;51617;48.158;16.464;2023-03-14T11:10:28;14.90;79.60
65044;DHT22;51617;48.158;16.464;2023-03-14T11:13:38;14.70;81.40
65044;DHT22;51617;48.158;16.464;2023-03-14T11:21:55;14.60;79.00
65044;DHT22;51617;48.158;16.464;2023-03-14T11:27:22;14.50;78.30
65044;DHT22;51617;48.158;16.464;2023-03-14T11:30:05;14.50;78.90
65044;DHT22;51617;48.158;16.464;2023-03-14T11:35:26;14.50;77.50
65044;DHT22;51617;48.158;16.464;2023-03-14T11:40:41;14.40;77.70
65044;DHT22;51617;48.158;16.464;2023-03-14T11:45:56;14.30;77.00
65044;DHT22;51617;48.158;16.464;2023-03-14T11:51:07;14.20;76.80
65044;DHT22;51617;48.158;16.464;2023-03-14T11:56:13;14.00;76.90
65044;DHT22;51617;48.158;16.464;2023-03-14T11:58:51;14.00;77.00
65044;DHT22;51617;48.158;16.464;2023-03-14T12:01:23;14.00;77.30
65044;DHT22;51617;48.158;16.464;2023-03-14T12:04:17;14.00;77.20
65044;DHT22;51617;48.158;16.464;2023-03-14T12:06:51;14.00;77.40
65044;DHT22;51617;48.158;16.464;2023-03-14T12:09:18;14.00;77.00
65044;DHT22;51617;48.158;16.464;2023-03-14T12:11:51;14.00;77.70
65044;DHT22;51617;48.158;16.464;2023-03-14T12:14:44;14.00;77.30
65044;DHT22;51617;48.158;16.464;2023-03-14T12:17:34;14.00;77.50
65044;DHT22;51617;48.158;16.464;2023-03-14T12:22:30;13.80;77.80
65044;DHT22;51617;48.158;16.464;2023-03-14T12:27:49;13.60;78.20
65044;DHT22;51617;48.158;16.464;2023-03-14T12:30:32;13.70;78.40
65044;DHT22;51617;48.158;16.464;2023-03-14T12:35:58;13.60;78.70
65044;DHT22;51617;48.158;16.464;2023-03-14T12:38:46;13.60;78.40
65044;DHT22;51617;48.158;16.464;2023-03-14T12:41:28;13.60;78.60
65044;DHT22;51617;48.158;16.464;2023-03-14T12:43:54;13.70;78.30
65044;DHT22;51617;48.158;16.464;2023-03-14T12:46:27;13.70;78.60
65044;DHT22;51617;48.158;16.464;2023-03-14T12:59:40;13.40;78.90
65044;DHT22;51617;48.158;16.464;2023-03-14T13:02:24;13.40;78.90
65044;DHT22;51617;48.158;16.464;2023-03-14T13:05:01;13.40;78.70
65044;DHT22;51617;48.158;16.464;2023-03-14T13:12:56;13.50;78.70
65044;DHT22;51617;48.158;16.464;2023-03-14T13:15:39;13.40;78.70
65044;DHT22;51617;48.158;16.464;2023-03-14T13:18:18;13.40;78.70
65044;DHT22;51617;48.158;16.464;2023-03-14T13:23:28;13.40;78.70
65044;DHT22;51617;48.158;16.464;2023-03-14T13:25:54;13.40;78.70
65044;DHT22;51617;48.158;16.464;2023-03-14T13:28:21;13.40;78.70
65044;DHT22;51617;48.158;16.464;2023-03-14T13:30:49;13.40;78.70
65044;DHT22;51617;48.158;16.464;2023-03-14T13:33:20;13.40;78.90
65044;DHT22;51617;48.158;16.464;2023-03-14T13:36:01;13.50;78.90
65044;DHT22;51617;48.158;16.464;2023-03-14T13:38:32;13.50;78.70
65044;DHT22;51617;48.158;16.464;2023-03-14T13:41:00;13.50;79.00
65044;DHT22;51617;48.158;16.464;2023-03-14T13:43:35;13.50;78.90
65044;DHT22;51617;48.158;16.464;2023-03-14T13:46:03;13.40;78.70
65044;DHT22;51617;48.158;16.464;2023-03-14T13:48:32;13.40;78.80
65044;DHT22;51617;48.158;16.464;2023-03-14T13:51:09;13.50;79.40
65044;DHT22;51617;48.158;16.464;2023-03-14T13:53:50;13.40;79.00
65044;DHT22;51617;48.158;16.464;2023-03-14T13:56:19;13.40;79.00
65044;DHT22;51617;48.158;16.464;2023-03-14T13:58:45;13.50;78.90
65044;DHT22;51617;48.158;16.464;2023-03-14T14:01:26;13.60;79.10
65044;DHT22;51617;48.158;16.464;2023-03-14T14:03:56;13.60;79.00
65044;DHT22;51617;48.158;16.464;2023-03-14T14:07:05;13.60;79.40
65044;DHT22;51617;48.158;16.464;2023-03-14T14:09:14;13.60;79.30
65044;DHT22;51617;48.158;16.464;2023-03-14T14:11:56;13.70;79.30
65044;DHT22;51617;48.158;16.464;2023-03-14T14:14:40;13.80;79.20
65044;DHT22;51617;48.158;16.464;2023-03-14T14:17:11;13.80;79.30
65044;DHT22;51617;48.158;16.464;2023-03-14T14:19:37;13.80;81.30
65044;DHT22;51617;48.158;16.464;2023-03-14T14:22:04;13.70;79.90
65044;DHT22;51617;48.158;16.464;2023-03-14T14:24:31;13.70;80.20
65044;DHT22;51617;48.158;16.464;2023-03-14T14:29:35;13.70;79.90
65044;DHT22;51617;48.158;16.464;2023-03-14T14:32:12;13.70;79.90
65044;DHT22;51617;48.158;16.464;2023-03-14T14:34:42;13.80;80.20
65044;DHT22;51617;48.158;16.464;2023-03-14T14:37:26;13.70;81.10
65044;DHT22;51617;48.158;16.464;2023-03-14T14:39:56;13.70;82.80
65044;DHT22;51617;48.158;16.464;2023-03-14T14:42:26;13.70;84.20
65044;DHT22;51617;48.158;16.464;2023-03-14T14:44:52;13.70;85.10
65044;DHT22;51617;48.158;16.464;2023-03-14T14:47:21;13.70;85.60
65044;DHT22;51617;48.158;16.464;2023-03-14T14:49:49;13.70;85.60
65044;DHT22;51617;48.158;16.464;2023-03-14T14:52:20;13.70;86.50
65044;DHT22;51617;48.158;16.464;2023-03-14T14:54:52;13.70;86.70
65044;DHT22;51617;48.158;16.464;2023-03-14T14:57:27;13.70;86.90
65044;DHT22;51617;48.158;16.464;2023-03-14T14:59:57;13.70;87.10
65044;DHT22;51617;48.158;16.464;2023-03-14T15:02:45;13.60;88.00
65044;DHT22;51617;48.158;16.464;2023-03-14T15:05:13;13.60;88.50
65044;DHT22;51617;48.158;16.464;2023-03-14T15:07:40;13.50;88.30
65044;DHT22;51617;48.158;16.464;2023-03-14T15:10:09;13.50;88.70
65044;DHT22;51617;48.158;16.464;2023-03-14T15:12:35;13.60;89.00
65044;DHT22;51617;48.158;16.464;2023-03-14T15:15:01;13.50;87.90
65044;DHT22;51617;48.158;16.464;2023-03-14T15:17:26;13.60;88.40
65044;DHT22;51617;48.158;16.464;2023-03-14T15:19:52;13.60;88.30
65044;DHT22;51617;48.158;16.464;2023-03-14T15:22:18;13.60;88.60
65044;DHT22;51617;48.158;16.464;2023-03-14T15:24:44;13.50;89.50
65044;DHT22;51617;48.158;16.464;2023-03-14T15:27:15;13.50;90.00
65044;DHT22;51617;48.158;16.464;2023-03-14T15:29:42;13.50;90.10
65044;DHT22;51617;48.158;16.464;2023-03-14T15:32:12;13.60;89.50
65044;DHT22;51617;48.158;16.464;2023-03-14T15:34:39;13.60;89.10
65044;DHT22;51617;48.158;16.464;2023-03-14T15:37:04;13.70;88.20
65044;DHT22;51617;48.158;16.464;2023-03-14T15:39:35;13.60;88.50
65044;DHT22;51617;48.158;16.464;2023-03-14T15:42:01;13.60;88.60
65044;DHT22;51617;48.158;16.464;2023-03-14T15:44:27;13.60;88.90
65044;DHT22;51617;48.158;16.464;2023-03-14T15:46:52;13.60;89.40
65044;DHT22;51617;48.158;16.464;2023-03-14T15:49:18;13.50;89.60
65044;DHT22;51617;48.158;16.464;2023-03-14T15:51:44;13.40;89.70
65044;DHT22;51617;48.158;16.464;2023-03-14T15:54:09;13.40;89.80
65044;DHT22;51617;48.158;16.464;2023-03-14T15:56:36;13.40;90.00
65044;DHT22;51617;48.158;16.464;2023-03-14T15:59:02;13.40;90.00
65044;DHT22;51617;48.158;16.464;2023-03-14T16:01:27;13.40;90.00
65044;DHT22;51617;48.158;16.464;2023-03-14T16:03:53;13.40;89.80
65044;DHT22;51617;48.158;16.464;2023-03-14T16:06:19;13.30;90.10
65044;DHT22;51617;48.158;16.464;2023-03-14T16:08:45;13.30;90.20
65044;DHT22;51617;48.158;16.464;2023-03-14T16:11:13;13.20;90.30
65044;DHT22;51617;48.158;16.464;2023-03-14T16:13:40;13.20;90.40
65044;DHT22;51617;48.158;16.464;2023-03-14T16:16:07;13.20;90.30
65044;DHT22;51617;48.158;16.464;2023-03-14T16:18:35;13.20;90.20
65044;DHT22;51617;48.158;16.464;2023-03-14T16:21:12;13.20;90.30
65044;DHT22;51617;48.158;16.464;2023-03-14T16:23:38;13.10;90.50
65044;DHT22;51617;48.158;16.464;2023-03-14T16:26:06;13.10;90.50
65044;DHT22;51617;48.158;16.464;2023-03-14T16:28:32;13.10;90.60
65044;DHT22;51617;48.158;16.464;2023-03-14T16:31:10;13.00;91.00
65044;DHT22;51617;48.158;16.464;2023-03-14T16:33:37;12.90;91.20
65044;DHT22;51617;48.158;16.464;2023-03-14T16:36:05;12.80;91.40
65044;DHT22;51617;48.158;16.464;2023-03-14T16:38:37;12.80;91.60